sensor_id;sensor_type;location;lat;lon;timestamp;pressure;altitude;pressure_sealevel;temperature;humidity
61436;BME280;47304;47.456;19.160;2023-05-21T00:00:31;100380.06;;;17.79;62.27
61436;BME280;47304;47.456;19.160;2023-05-21T00:02:57;100383.60;;;17.79;62.49
61436;BME280;47304;47.456;19.160;2023-05-21T00:05:24;100384.50;;;17.78;62.61
61436;BME280;47304;47.456;19.160;2023-05-21T00:07:51;100385.92;;;17.77;62.53
61436;BME280;47304;47.456;19.160;2023-05-21T00:10:18;100384.58;;;17.76;62.53
61436;BME280;47304;47.456;19.160;2023-05-21T00:12:44;100383.77;;;17.73;62.60
61436;BME280;47304;47.456;19.160;2023-05-21T00:15:11;100387.20;;;17.71;62.75
61436;BME280;47304;47.456;19.160;2023-05-21T00:17:38;100386.02;;;17.69;63.07
61436;BME280;47304;47.456;19.160;2023-05-21T00:20:05;100384.30;;;17.67;62.87
61436;BME280;47304;47.456;19.160;2023-05-21T00:22:32;100387.08;;;17.63;62.98
61436;BME280;47304;47.456;19.160;2023-05-21T00:24:58;100384.32;;;17.60;63.40
61436;BME280;47304;47.456;19.160;2023-05-21T00:27:25;100385.45;;;17.58;63.19
61436;BME280;47304;47.456;19.160;2023-05-21T00:29:51;100389.79;;;17.55;63.20
61436;BME280;47304;47.456;19.160;2023-05-21T00:32:18;100390.23;;;17.52;63.19
61436;BME280;47304;47.456;19.160;2023-05-21T00:34:44;100388.20;;;17.49;63.46
61436;BME280;47304;47.456;19.160;2023-05-21T00:37:11;100385.83;;;17.45;63.77
61436;BME280;47304;47.456;19.160;2023-05-21T00:39:37;100386.80;;;17.42;63.30
61436;BME280;47304;47.456;19.160;2023-05-21T00:42:04;100384.77;;;17.38;63.40
61436;BME280;47304;47.456;19.160;2023-05-21T00:44:30;100382.72;;;17.36;63.86
61436;BME280;47304;47.456;19.160;2023-05-21T00:46:57;100380.34;;;17.32;63.79
61436;BME280;47304;47.456;19.160;2023-05-21T00:49:24;100383.12;;;17.28;63.63
61436;BME280;47304;47.456;19.160;2023-05-21T00:51:50;100379.83;;;17.25;64.09
61436;BME280;47304;47.456;19.160;2023-05-21T00:54:17;100383.63;;;17.23;64.27
61436;BME280;47304;47.456;19.160;2023-05-21T00:56:44;100386.19;;;17.20;63.99
61436;BME280;47304;47.456;19.160;2023-05-21T00:59:13;100381.89;;;17.15;63.89
61436;BME280;47304;47.456;19.160;2023-05-21T01:01:44;100380.27;;;17.09;63.87
61436;BME280;47304;47.456;19.160;2023-05-21T01:04:11;100374.90;;;17.05;63.87
61436;BME280;47304;47.456;19.160;2023-05-21T01:06:38;100378.36;;;17.01;64.18
61436;BME280;47304;47.456;19.160;2023-05-21T01:09:04;100380.58;;;16.98;64.19
61436;BME280;47304;47.456;19.160;2023-05-21T01:11:40;100377.84;;;16.93;64.37
61436;BME280;47304;47.456;19.160;2023-05-21T01:14:10;100377.75;;;16.90;64.70
61436;BME280;47304;47.456;19.160;2023-05-21T01:16:38;100381.54;;;16.87;64.96
61436;BME280;47304;47.456;19.160;2023-05-21T01:19:07;100377.51;;;16.86;65.10
61436;BME280;47304;47.456;19.160;2023-05-21T01:21:37;100374.92;;;16.83;65.12
61436;BME280;47304;47.456;19.160;2023-05-21T01:24:06;100372.89;;;16.79;65.36
61436;BME280;47304;47.456;19.160;2023-05-21T01:26:33;100372.24;;;16.77;65.51
61436;BME280;47304;47.456;19.160;2023-05-21T01:28:59;100371.63;;;16.74;65.51
61436;BME280;47304;47.456;19.160;2023-05-21T01:31:29;100371.37;;;16.70;65.51
61436;BME280;47304;47.456;19.160;2023-05-21T01:34:02;100374.42;;;16.68;65.65
61436;BME280;47304;47.456;19.160;2023-05-21T01:36:31;100374.54;;;16.63;65.70
61436;BME280;47304;47.456;19.160;2023-05-21T01:39:05;100373.07;;;16.59;65.68
61436;BME280;47304;47.456;19.160;2023-05-21T01:41:37;100373.84;;;16.57;65.77
61436;BME280;47304;47.456;19.160;2023-05-21T01:44:04;100369.83;;;16.54;66.08
61436;BME280;47304;47.456;19.160;2023-05-21T01:46:34;100370.77;;;16.51;65.92
61436;BME280;47304;47.456;19.160;2023-05-21T01:49:04;100371.37;;;16.48;65.83
61436;BME280;47304;47.456;19.160;2023-05-21T01:51:31;100369.84;;;16.46;66.05
61436;BME280;47304;47.456;19.160;2023-05-21T01:53:58;100367.58;;;16.44;66.13
61436;BME280;47304;47.456;19.160;2023-05-21T01:56:25;100366.40;;;16.43;66.27
61436;BME280;47304;47.456;19.160;2023-05-21T01:58:51;100369.13;;;16.39;66.28
61436;BME280;47304;47.456;19.160;2023-05-21T02:01:18;100370.02;;;16.39;66.34
61436;BME280;47304;47.456;19.160;2023-05-21T02:03:44;100366.70;;;16.37;66.44
61436;BME280;47304;47.456;19.160;2023-05-21T02:06:11;100368.48;;;16.35;66.15
61436;BME280;47304;47.456;19.160;2023-05-21T02:08:37;100368.86;;;16.35;66.32
61436;BME280;47304;47.456;19.160;2023-05-21T02:11:04;100369.23;;;16.34;66.51
61436;BME280;47304;47.456;19.160;2023-05-21T02:13:30;100365.23;;;16.32;66.44
61436;BME280;47304;47.456;19.160;2023-05-21T02:15:57;100362.12;;;16.29;66.37
61436;BME280;47304;47.456;19.160;2023-05-21T02:18:24;100361.81;;;16.28;66.27
61436;BME280;47304;47.456;19.160;2023-05-21T02:20:50;100363.95;;;16.26;66.35
61436;BME280;47304;47.456;19.160;2023-05-21T02:23:17;100365.40;;;16.25;66.59
61436;BME280;47304;47.456;19.160;2023-05-21T02:25:43;100369.34;;;16.23;66.66
61436;BME280;47304;47.456;19.160;2023-05-21T02:28:10;100367.95;;;16.22;66.64
61436;BME280;47304;47.456;19.160;2023-05-21T02:30:36;100364.98;;;16.20;66.80
61436;BME280;47304;47.456;19.160;2023-05-21T02:33:03;100366.96;;;16.19;66.99
61436;BME280;47304;47.456;19.160;2023-05-21T02:35:30;100364.19;;;16.16;66.93
61436;BME280;47304;47.456;19.160;2023-05-21T02:37:56;100364.91;;;16.16;67.13
61436;BME280;47304;47.456;19.160;2023-05-21T02:40:23;100366.02;;;16.14;67.39
61436;BME280;47304;47.456;19.160;2023-05-21T02:42:49;100364.66;;;16.12;67.19
61436;BME280;47304;47.456;19.160;2023-05-21T02:45:16;100363.64;;;16.09;67.02
61436;BME280;47304;47.456;19.160;2023-05-21T02:47:42;100364.27;;;16.05;67.00
61436;BME280;47304;47.456;19.160;2023-05-21T02:50:09;100362.23;;;16.02;67.07
61436;BME280;47304;47.456;19.160;2023-05-21T02:52:35;100361.76;;;15.99;67.05
61436;BME280;47304;47.456;19.160;2023-05-21T02:55:02;100361.45;;;15.97;67.09
61436;BME280;47304;47.456;19.160;2023-05-21T02:57:29;100363.80;;;15.95;66.94
61436;BME280;47304;47.456;19.160;2023-05-21T02:59:55;100359.92;;;15.95;67.06
61436;BME280;47304;47.456;19.160;2023-05-21T03:02:22;100358.52;;;15.94;66.97
61436;BME280;47304;47.456;19.160;2023-05-21T03:04:49;100358.18;;;15.93;67.10
61436;BME280;47304;47.456;19.160;2023-05-21T03:07:16;100361.55;;;15.93;67.01
61436;BME280;47304;47.456;19.160;2023-05-21T03:09:43;100356.42;;;15.93;66.84
61436;BME280;47304;47.456;19.160;2023-05-21T03:12:10;100351.30;;;15.93;67.05
61436;BME280;47304;47.456;19.160;2023-05-21T03:14:37;100350.59;;;15.93;66.89
61436;BME280;47304;47.456;19.160;2023-05-21T03:17:04;100347.27;;;15.92;66.93
61436;BME280;47304;47.456;19.160;2023-05-21T03:19:31;100346.73;;;15.92;66.89
61436;BME280;47304;47.456;19.160;2023-05-21T03:21:59;100348.14;;;15.92;66.94
61436;BME280;47304;47.456;19.160;2023-05-21T03:24:27;100350.42;;;15.92;66.82
61436;BME280;47304;47.456;19.160;2023-05-21T03:26:53;100348.34;;;15.92;66.79
61436;BME280;47304;47.456;19.160;2023-05-21T03:29:20;100348.15;;;15.92;66.73
61436;BME280;47304;47.456;19.160;2023-05-21T03:31:46;100350.05;;;15.94;66.84
61436;BME280;47304;47.456;19.160;2023-05-21T03:34:13;100353.02;;;15.96;66.72
61436;BME280;47304;47.456;19.160;2023-05-21T03:36:39;100357.20;;;15.97;66.76
61436;BME280;47304;47.456;19.160;2023-05-21T03:39:06;100355.06;;;15.98;66.46
61436;BME280;47304;47.456;19.160;2023-05-21T03:41:32;100358.02;;;16.01;66.54
61436;BME280;47304;47.456;19.160;2023-05-21T03:43:59;100359.02;;;16.03;66.45
61436;BME280;47304;47.456;19.160;2023-05-21T03:46:26;100360.17;;;16.06;66.76
61436;BME280;47304;47.456;19.160;2023-05-21T03:48:52;100362.40;;;16.10;66.61
61436;BME280;47304;47.456;19.160;2023-05-21T03:51:19;100361.09;;;16.13;66.29
61436;BME280;47304;47.456;19.160;2023-05-21T03:53:46;100362.59;;;16.17;66.62
61436;BME280;47304;47.456;19.160;2023-05-21T03:56:12;100367.95;;;16.21;66.51
61436;BME280;47304;47.456;19.160;2023-05-21T03:58:39;100378.44;;;16.27;66.26
61436;BME280;47304;47.456;19.160;2023-05-21T04:01:05;100376.35;;;16.33;66.17
61436;BME280;47304;47.456;19.160;2023-05-21T04:03:32;100375.45;;;16.41;65.80
61436;BME280;47304;47.456;19.160;2023-05-21T04:05:59;100374.22;;;16.48;65.70
61436;BME280;47304;47.456;19.160;2023-05-21T04:08:25;100376.14;;;16.56;65.66
61436;BME280;47304;47.456;19.160;2023-05-21T04:10:52;100377.36;;;16.64;65.56
61436;BME280;47304;47.456;19.160;2023-05-21T04:13:18;100382.10;;;16.72;65.10
61436;BME280;47304;47.456;19.160;2023-05-21T04:15:45;100381.36;;;16.80;64.93
61436;BME280;47304;47.456;19.160;2023-05-21T04:18:12;100379.95;;;16.87;64.81
61436;BME280;47304;47.456;19.160;2023-05-21T04:20:38;100376.98;;;16.93;64.72
61436;BME280;47304;47.456;19.160;2023-05-21T04:23:05;100379.67;;;16.99;64.45
61436;BME280;47304;47.456;19.160;2023-05-21T04:25:31;100383.95;;;17.04;64.42
61436;BME280;47304;47.456;19.160;2023-05-21T04:27:58;100384.35;;;17.09;63.87
61436;BME280;47304;47.456;19.160;2023-05-21T04:30:25;100385.80;;;17.14;63.57
61436;BME280;47304;47.456;19.160;2023-05-21T04:32:52;100384.05;;;17.20;63.45
61436;BME280;47304;47.456;19.160;2023-05-21T04:35:18;100382.13;;;17.25;63.26
61436;BME280;47304;47.456;19.160;2023-05-21T04:37:45;100380.05;;;17.30;63.39
61436;BME280;47304;47.456;19.160;2023-05-21T04:40:12;100375.15;;;17.34;63.43
61436;BME280;47304;47.456;19.160;2023-05-21T04:42:38;100373.43;;;17.39;63.32
61436;BME280;47304;47.456;19.160;2023-05-21T04:45:05;100371.00;;;17.43;63.47
61436;BME280;47304;47.456;19.160;2023-05-21T04:47:32;100363.48;;;17.46;63.00
61436;BME280;47304;47.456;19.160;2023-05-21T04:49:59;100364.36;;;17.53;62.54
61436;BME280;47304;47.456;19.160;2023-05-21T04:52:25;100362.08;;;17.58;62.26
61436;BME280;47304;47.456;19.160;2023-05-21T04:54:52;100360.51;;;17.63;62.29
61436;BME280;47304;47.456;19.160;2023-05-21T04:57:18;100359.29;;;17.68;62.04
61436;BME280;47304;47.456;19.160;2023-05-21T04:59:45;100359.66;;;17.74;61.52
61436;BME280;47304;47.456;19.160;2023-05-21T05:02:11;100362.50;;;17.79;61.12
61436;BME280;47304;47.456;19.160;2023-05-21T05:04:38;100359.66;;;17.85;61.20
61436;BME280;47304;47.456;19.160;2023-05-21T05:07:04;100361.05;;;17.92;61.08
61436;BME280;47304;47.456;19.160;2023-05-21T05:09:31;100358.98;;;17.97;60.86
61436;BME280;47304;47.456;19.160;2023-05-21T05:11:57;100360.07;;;18.02;60.78
61436;BME280;47304;47.456;19.160;2023-05-21T05:14:24;100362.90;;;18.08;60.67
61436;BME280;47304;47.456;19.160;2023-05-21T05:16:50;100362.87;;;18.14;60.54
61436;BME280;47304;47.456;19.160;2023-05-21T05:19:17;100365.52;;;18.20;60.35
61436;BME280;47304;47.456;19.160;2023-05-21T05:21:44;100367.25;;;18.27;60.28
61436;BME280;47304;47.456;19.160;2023-05-21T05:24:10;100367.20;;;18.34;60.39
61436;BME280;47304;47.456;19.160;2023-05-21T05:26:37;100362.89;;;18.41;60.54
61436;BME280;47304;47.456;19.160;2023-05-21T05:29:03;100364.64;;;18.47;60.15
61436;BME280;47304;47.456;19.160;2023-05-21T05:31:30;100360.15;;;18.54;59.91
61436;BME280;47304;47.456;19.160;2023-05-21T05:33:56;100360.28;;;18.61;59.80
61436;BME280;47304;47.456;19.160;2023-05-21T05:36:23;100365.14;;;18.69;59.94
61436;BME280;47304;47.456;19.160;2023-05-21T05:38:50;100363.15;;;18.76;59.67
61436;BME280;47304;47.456;19.160;2023-05-21T05:41:16;100358.70;;;18.81;59.59
61436;BME280;47304;47.456;19.160;2023-05-21T05:43:43;100357.55;;;18.89;59.97
61436;BME280;47304;47.456;19.160;2023-05-21T05:46:09;100357.08;;;18.98;59.30
61436;BME280;47304;47.456;19.160;2023-05-21T05:48:36;100356.79;;;19.06;58.79
61436;BME280;47304;47.456;19.160;2023-05-21T05:51:02;100363.27;;;19.14;58.11
61436;BME280;47304;47.456;19.160;2023-05-21T05:53:29;100361.61;;;19.21;58.05
61436;BME280;47304;47.456;19.160;2023-05-21T05:55:55;100366.31;;;19.28;57.87
61436;BME280;47304;47.456;19.160;2023-05-21T05:58:22;100364.52;;;19.33;57.06
61436;BME280;47304;47.456;19.160;2023-05-21T06:00:48;100357.89;;;19.40;57.58
61436;BME280;47304;47.456;19.160;2023-05-21T06:03:15;100356.23;;;19.46;57.52
61436;BME280;47304;47.456;19.160;2023-05-21T06:05:42;100355.65;;;19.52;57.03
61436;BME280;47304;47.456;19.160;2023-05-21T06:08:08;100351.68;;;19.58;56.76
61436;BME280;47304;47.456;19.160;2023-05-21T06:10:35;100355.48;;;19.66;56.78
61436;BME280;47304;47.456;19.160;2023-05-21T06:13:02;100354.34;;;19.72;56.95
61436;BME280;47304;47.456;19.160;2023-05-21T06:15:29;100352.69;;;19.78;56.83
61436;BME280;47304;47.456;19.160;2023-05-21T06:17:55;100352.43;;;19.86;56.57
61436;BME280;47304;47.456;19.160;2023-05-21T06:20:22;100350.77;;;19.92;56.06
61436;BME280;47304;47.456;19.160;2023-05-21T06:22:49;100343.95;;;19.98;56.04
61436;BME280;47304;47.456;19.160;2023-05-21T06:25:15;100346.71;;;20.05;55.94
61436;BME280;47304;47.456;19.160;2023-05-21T06:27:42;100345.36;;;20.12;55.81
61436;BME280;47304;47.456;19.160;2023-05-21T06:30:08;100339.57;;;20.18;55.18
61436;BME280;47304;47.456;19.160;2023-05-21T06:32:35;100340.21;;;20.25;54.73
61436;BME280;47304;47.456;19.160;2023-05-21T06:35:01;100336.95;;;20.31;54.17
61436;BME280;47304;47.456;19.160;2023-05-21T06:37:28;100337.77;;;20.36;54.04
61436;BME280;47304;47.456;19.160;2023-05-21T06:39:55;100336.44;;;20.43;54.54
61436;BME280;47304;47.456;19.160;2023-05-21T06:42:21;100338.70;;;20.48;54.27
61436;BME280;47304;47.456;19.160;2023-05-21T06:44:48;100340.21;;;20.55;54.31
61436;BME280;47304;47.456;19.160;2023-05-21T06:47:14;100334.64;;;20.61;54.02
61436;BME280;47304;47.456;19.160;2023-05-21T06:49:41;100334.17;;;20.67;54.13
61436;BME280;47304;47.456;19.160;2023-05-21T06:52:07;100332.82;;;20.74;54.08
61436;BME280;47304;47.456;19.160;2023-05-21T06:54:34;100328.44;;;20.81;54.31
61436;BME280;47304;47.456;19.160;2023-05-21T06:57:01;100329.70;;;20.89;53.86
61436;BME280;47304;47.456;19.160;2023-05-21T06:59:27;100323.98;;;20.98;53.56
61436;BME280;47304;47.456;19.160;2023-05-21T07:01:54;100323.73;;;21.03;53.58
61436;BME280;47304;47.456;19.160;2023-05-21T07:04:20;100326.21;;;21.12;53.50
61436;BME280;47304;47.456;19.160;2023-05-21T07:06:47;100325.51;;;21.19;53.29
61436;BME280;47304;47.456;19.160;2023-05-21T07:09:13;100320.53;;;21.27;53.12
61436;BME280;47304;47.456;19.160;2023-05-21T07:11:40;100324.30;;;21.34;52.71
61436;BME280;47304;47.456;19.160;2023-05-21T07:14:07;100322.21;;;21.41;52.45
61436;BME280;47304;47.456;19.160;2023-05-21T07:16:34;100315.69;;;21.47;52.13
61436;BME280;47304;47.456;19.160;2023-05-21T07:19:00;100316.79;;;21.54;52.05
61436;BME280;47304;47.456;19.160;2023-05-21T07:21:27;100306.88;;;21.61;52.18
61436;BME280;47304;47.456;19.160;2023-05-21T07:23:53;100307.02;;;21.69;52.46
61436;BME280;47304;47.456;19.160;2023-05-21T07:26:20;100309.98;;;21.78;52.21
61436;BME280;47304;47.456;19.160;2023-05-21T07:28:46;100311.16;;;21.87;52.07
61436;BME280;47304;47.456;19.160;2023-05-21T07:31:13;100311.02;;;21.94;51.25
61436;BME280;47304;47.456;19.160;2023-05-21T07:33:40;100311.08;;;22.00;50.75
61436;BME280;47304;47.456;19.160;2023-05-21T07:36:06;100311.91;;;22.05;50.32
61436;BME280;47304;47.456;19.160;2023-05-21T07:38:33;100310.48;;;22.09;50.60
61436;BME280;47304;47.456;19.160;2023-05-21T07:40:59;100306.75;;;22.12;50.77
61436;BME280;47304;47.456;19.160;2023-05-21T07:43:26;100304.40;;;22.16;50.99
61436;BME280;47304;47.456;19.160;2023-05-21T07:45:52;100305.02;;;22.21;50.84
61436;BME280;47304;47.456;19.160;2023-05-21T07:48:19;100306.73;;;22.27;50.87
61436;BME280;47304;47.456;19.160;2023-05-21T07:50:45;100306.61;;;22.33;50.38
61436;BME280;47304;47.456;19.160;2023-05-21T07:53:12;100302.30;;;22.37;50.53
61436;BME280;47304;47.456;19.160;2023-05-21T07:55:39;100299.34;;;22.43;51.07
61436;BME280;47304;47.456;19.160;2023-05-21T07:58:05;100297.23;;;22.50;50.83
61436;BME280;47304;47.456;19.160;2023-05-21T08:00:41;100301.63;;;22.57;50.88
61436;BME280;47304;47.456;19.160;2023-05-21T08:03:08;100304.24;;;22.66;50.41
61436;BME280;47304;47.456;19.160;2023-05-21T08:05:34;100304.08;;;22.72;50.31
61436;BME280;47304;47.456;19.160;2023-05-21T08:08:01;100301.21;;;22.80;50.30
61436;BME280;47304;47.456;19.160;2023-05-21T08:10:28;100301.21;;;22.86;50.37
61436;BME280;47304;47.456;19.160;2023-05-21T08:12:54;100300.33;;;22.93;50.24
61436;BME280;47304;47.456;19.160;2023-05-21T08:15:21;100300.48;;;23.00;50.55
61436;BME280;47304;47.456;19.160;2023-05-21T08:17:47;100298.92;;;23.09;50.28
61436;BME280;47304;47.456;19.160;2023-05-21T08:20:14;100302.42;;;23.17;50.38
61436;BME280;47304;47.456;19.160;2023-05-21T08:22:41;100299.30;;;23.26;50.53
61436;BME280;47304;47.456;19.160;2023-05-21T08:25:07;100303.48;;;23.35;49.79
61436;BME280;47304;47.456;19.160;2023-05-21T08:27:34;100302.06;;;23.41;49.07
61436;BME280;47304;47.456;19.160;2023-05-21T08:30:00;100303.84;;;23.48;49.15
61436;BME280;47304;47.456;19.160;2023-05-21T08:32:27;100303.41;;;23.55;49.06
61436;BME280;47304;47.456;19.160;2023-05-21T08:34:54;100306.94;;;23.63;48.37
61436;BME280;47304;47.456;19.160;2023-05-21T08:37:20;100302.15;;;23.68;47.94
61436;BME280;47304;47.456;19.160;2023-05-21T08:39:47;100305.46;;;23.73;47.42
61436;BME280;47304;47.456;19.160;2023-05-21T08:42:35;100303.76;;;23.78;47.88
61436;BME280;47304;47.456;19.160;2023-05-21T08:45:05;100308.04;;;23.85;46.88
61436;BME280;47304;47.456;19.160;2023-05-21T08:47:34;100307.77;;;23.90;46.98
61436;BME280;47304;47.456;19.160;2023-05-21T08:50:03;100305.35;;;23.95;46.54
61436;BME280;47304;47.456;19.160;2023-05-21T08:52:33;100303.69;;;23.99;46.58
61436;BME280;47304;47.456;19.160;2023-05-21T08:55:02;100310.28;;;24.06;46.57
61436;BME280;47304;47.456;19.160;2023-05-21T08:57:30;100307.42;;;24.12;46.37
61436;BME280;47304;47.456;19.160;2023-05-21T08:59:57;100308.09;;;24.19;46.98
61436;BME280;47304;47.456;19.160;2023-05-21T09:02:24;100306.96;;;24.26;46.19
61436;BME280;47304;47.456;19.160;2023-05-21T09:04:54;100304.70;;;24.31;46.00
61436;BME280;47304;47.456;19.160;2023-05-21T09:07:24;100300.98;;;24.36;45.72
61436;BME280;47304;47.456;19.160;2023-05-21T09:09:56;100298.46;;;24.43;46.47
61436;BME280;47304;47.456;19.160;2023-05-21T09:12:23;100298.02;;;24.50;45.94
61436;BME280;47304;47.456;19.160;2023-05-21T09:14:50;100298.06;;;24.58;45.78
61436;BME280;47304;47.456;19.160;2023-05-21T09:17:18;100291.96;;;24.65;45.18
61436;BME280;47304;47.456;19.160;2023-05-21T09:22:44;100294.31;;;24.77;44.39
61436;BME280;47304;47.456;19.160;2023-05-21T09:25:15;100291.65;;;24.82;44.06
61436;BME280;47304;47.456;19.160;2023-05-21T09:27:42;100292.96;;;24.90;44.09
61436;BME280;47304;47.456;19.160;2023-05-21T09:30:10;100291.50;;;24.96;43.86
61436;BME280;47304;47.456;19.160;2023-05-21T09:32:38;100290.17;;;25.00;43.74
61436;BME280;47304;47.456;19.160;2023-05-21T09:35:11;100293.70;;;25.07;44.27
61436;BME280;47304;47.456;19.160;2023-05-21T09:37:38;100293.04;;;25.15;44.18
61436;BME280;47304;47.456;19.160;2023-05-21T09:40:15;100299.55;;;25.22;43.75
61436;BME280;47304;47.456;19.160;2023-05-21T09:42:46;100293.44;;;25.29;43.14
61436;BME280;47304;47.456;19.160;2023-05-21T09:45:25;100296.96;;;25.32;43.40
61436;BME280;47304;47.456;19.160;2023-05-21T09:47:53;100294.70;;;25.37;43.52
61436;BME280;47304;47.456;19.160;2023-05-21T09:50:22;100296.73;;;25.42;43.18
61436;BME280;47304;47.456;19.160;2023-05-21T09:52:50;100303.70;;;25.48;44.19
61436;BME280;47304;47.456;19.160;2023-05-21T09:55:20;100288.33;;;25.56;44.51
61436;BME280;47304;47.456;19.160;2023-05-21T09:57:48;100282.09;;;25.63;44.58
61436;BME280;47304;47.456;19.160;2023-05-21T10:00:23;100282.90;;;25.70;43.31
61436;BME280;47304;47.456;19.160;2023-05-21T10:02:55;100282.43;;;25.75;43.40
61436;BME280;47304;47.456;19.160;2023-05-21T10:05:27;100281.36;;;25.80;43.40
61436;BME280;47304;47.456;19.160;2023-05-21T10:08:02;100285.13;;;25.86;43.01
61436;BME280;47304;47.456;19.160;2023-05-21T10:10:30;100282.97;;;25.91;42.96
61436;BME280;47304;47.456;19.160;2023-05-21T10:13:00;100276.11;;;25.95;42.58
61436;BME280;47304;47.456;19.160;2023-05-21T10:15:31;100267.95;;;25.99;43.53
61436;BME280;47304;47.456;19.160;2023-05-21T10:18:00;100262.59;;;26.07;43.79
61436;BME280;47304;47.456;19.160;2023-05-21T10:20:27;100265.36;;;26.14;43.84
61436;BME280;47304;47.456;19.160;2023-05-21T10:22:54;100262.55;;;26.21;43.70
61436;BME280;47304;47.456;19.160;2023-05-21T10:25:22;100263.22;;;26.27;42.46
61436;BME280;47304;47.456;19.160;2023-05-21T10:27:52;100264.27;;;26.33;42.38
61436;BME280;47304;47.456;19.160;2023-05-21T10:30:20;100260.70;;;26.38;41.94
61436;BME280;47304;47.456;19.160;2023-05-21T10:32:49;100257.98;;;26.43;41.80
61436;BME280;47304;47.456;19.160;2023-05-21T10:35:16;100263.05;;;26.51;41.87
61436;BME280;47304;47.456;19.160;2023-05-21T10:37:44;100262.44;;;26.57;40.47
61436;BME280;47304;47.456;19.160;2023-05-21T10:40:11;100261.44;;;26.61;40.24
61436;BME280;47304;47.456;19.160;2023-05-21T10:45:35;100258.77;;;26.77;39.40
61436;BME280;47304;47.456;19.160;2023-05-21T10:50:57;100251.61;;;26.94;39.47
61436;BME280;47304;47.456;19.160;2023-05-21T10:56:24;100246.52;;;27.46;39.20
61436;BME280;47304;47.456;19.160;2023-05-21T11:01:50;100244.43;;;28.46;37.68
61436;BME280;47304;47.456;19.160;2023-05-21T11:04:27;100249.38;;;28.98;36.66
61436;BME280;47304;47.456;19.160;2023-05-21T11:06:54;100249.54;;;29.59;35.41
61436;BME280;47304;47.456;19.160;2023-05-21T11:09:21;100245.48;;;30.19;33.46
61436;BME280;47304;47.456;19.160;2023-05-21T11:11:53;100243.80;;;30.56;33.45
61436;BME280;47304;47.456;19.160;2023-05-21T11:14:39;100241.73;;;30.70;33.30
61436;BME280;47304;47.456;19.160;2023-05-21T11:17:14;100241.71;;;30.66;32.35
61436;BME280;47304;47.456;19.160;2023-05-21T11:19:45;100239.46;;;30.41;32.71
61436;BME280;47304;47.456;19.160;2023-05-21T11:24:47;100249.67;;;29.93;32.87
61436;BME280;47304;47.456;19.160;2023-05-21T11:29:55;100243.80;;;29.37;33.54
61436;BME280;47304;47.456;19.160;2023-05-21T11:32:22;100239.42;;;29.19;33.91
61436;BME280;47304;47.456;19.160;2023-05-21T11:34:49;100235.25;;;29.06;34.82
61436;BME280;47304;47.456;19.160;2023-05-21T11:39:46;100239.08;;;28.83;34.28
61436;BME280;47304;47.456;19.160;2023-05-21T11:42:27;100239.48;;;28.73;34.30
61436;BME280;47304;47.456;19.160;2023-05-21T11:44:55;100237.86;;;28.61;34.18
61436;BME280;47304;47.456;19.160;2023-05-21T11:47:22;100235.41;;;28.51;35.05
61436;BME280;47304;47.456;19.160;2023-05-21T11:49:49;100227.96;;;28.47;35.87
61436;BME280;47304;47.456;19.160;2023-05-21T11:52:15;100229.67;;;28.43;35.71
61436;BME280;47304;47.456;19.160;2023-05-21T11:54:44;100234.52;;;28.39;36.98
61436;BME280;47304;47.456;19.160;2023-05-21T11:57:11;100228.75;;;28.37;35.52
61436;BME280;47304;47.456;19.160;2023-05-21T11:59:38;100225.98;;;28.33;35.85
61436;BME280;47304;47.456;19.160;2023-05-21T12:02:05;100225.12;;;28.30;36.01
61436;BME280;47304;47.456;19.160;2023-05-21T12:04:32;100223.71;;;28.27;36.60
61436;BME280;47304;47.456;19.160;2023-05-21T12:07:03;100224.84;;;28.24;37.00
61436;BME280;47304;47.456;19.160;2023-05-21T12:09:29;100223.96;;;28.14;36.05
61436;BME280;47304;47.456;19.160;2023-05-21T12:11:56;100220.08;;;28.02;36.40
61436;BME280;47304;47.456;19.160;2023-05-21T12:14:23;100214.06;;;27.91;37.19
61436;BME280;47304;47.456;19.160;2023-05-21T12:16:49;100211.15;;;27.81;37.20
61436;BME280;47304;47.456;19.160;2023-05-21T12:19:16;100211.80;;;27.77;36.89
61436;BME280;47304;47.456;19.160;2023-05-21T12:21:43;100215.76;;;27.78;37.27
61436;BME280;47304;47.456;19.160;2023-05-21T12:24:10;100214.50;;;27.78;36.93
61436;BME280;47304;47.456;19.160;2023-05-21T12:26:37;100205.56;;;27.77;36.73
61436;BME280;47304;47.456;19.160;2023-05-21T12:29:04;100197.91;;;27.76;36.96
61436;BME280;47304;47.456;19.160;2023-05-21T12:31:31;100201.39;;;27.75;37.03
61436;BME280;47304;47.456;19.160;2023-05-21T12:33:57;100202.94;;;27.76;37.40
61436;BME280;47304;47.456;19.160;2023-05-21T12:36:29;100194.70;;;27.80;37.97
61436;BME280;47304;47.456;19.160;2023-05-21T12:38:56;100192.20;;;27.87;38.03
61436;BME280;47304;47.456;19.160;2023-05-21T12:41:23;100191.14;;;27.92;36.71
61436;BME280;47304;47.456;19.160;2023-05-21T12:43:50;100192.08;;;27.91;37.53
61436;BME280;47304;47.456;19.160;2023-05-21T12:46:17;100193.58;;;27.92;37.79
61436;BME280;47304;47.456;19.160;2023-05-21T12:48:54;100192.52;;;27.97;37.95
61436;BME280;47304;47.456;19.160;2023-05-21T12:51:20;100186.98;;;28.01;37.91
61436;BME280;47304;47.456;19.160;2023-05-21T12:53:47;100187.38;;;28.01;36.58
61436;BME280;47304;47.456;19.160;2023-05-21T12:56:14;100186.45;;;27.99;36.31
61436;BME280;47304;47.456;19.160;2023-05-21T12:58:41;100178.10;;;27.97;35.76
61436;BME280;47304;47.456;19.160;2023-05-21T13:01:09;100172.39;;;27.94;36.14
61436;BME280;47304;47.456;19.160;2023-05-21T13:03:37;100168.34;;;27.95;36.83